sensor_id;sensor_type;location;lat;lon;timestamp;P1;durP1;ratioP1;P2;durP2;ratioP2
61127;SDS011;47013;42.664;23.242;2023-06-22T06:59:37;1.27;;;0.82;;
61127;SDS011;47013;42.664;23.242;2023-06-22T07:02:03;0.70;;;0.70;;
61127;SDS011;47013;42.664;23.242;2023-06-22T07:04:28;0.45;;;0.45;;
61127;SDS011;47013;42.664;23.242;2023-06-22T07:06:54;1.40;;;0.73;;
61127;SDS011;47013;42.664;23.242;2023-06-22T07:09:19;1.15;;;0.63;;
61127;SDS011;47013;42.664;23.242;2023-06-22T07:11:44;0.93;;;0.77;;
61127;SDS011;47013;42.664;23.242;2023-06-22T07:14:10;1.33;;;0.68;;
61127;SDS011;47013;42.664;23.242;2023-06-22T07:16:35;1.35;;;1.05;;
61127;SDS011;47013;42.664;23.242;2023-06-22T07:19:00;0.52;;;0.52;;
61127;SDS011;47013;42.664;23.242;2023-06-22T07:21:26;1.40;;;1.02;;
61127;SDS011;47013;42.664;23.242;2023-06-22T07:23:51;0.88;;;0.88;;
61127;SDS011;47013;42.664;23.242;2023-06-22T07:26:16;1.20;;;0.70;;
61127;SDS011;47013;42.664;23.242;2023-06-22T07:28:42;1.85;;;1.20;;
61127;SDS011;47013;42.664;23.242;2023-06-22T07:31:07;0.90;;;0.77;;
61127;SDS011;47013;42.664;23.242;2023-06-22T07:33:33;2.00;;;1.15;;
61127;SDS011;47013;42.664;23.242;2023-06-22T07:35:58;1.50;;;0.98;;
61127;SDS011;47013;42.664;23.242;2023-06-22T07:38:23;0.95;;;0.82;;
61127;SDS011;47013;42.664;23.242;2023-06-22T07:40:49;3.17;;;0.93;;
61127;SDS011;47013;42.664;23.242;2023-06-22T07:43:15;2.40;;;1.35;;
61127;SDS011;47013;42.664;23.242;2023-06-22T07:45:44;0.90;;;0.80;;
61127;SDS011;47013;42.664;23.242;2023-06-22T07:48:17;1.50;;;1.00;;
61127;SDS011;47013;42.664;23.242;2023-06-22T07:50:46;2.10;;;1.25;;
61127;SDS011;47013;42.664;23.242;2023-06-22T07:53:11;1.48;;;0.95;;
61127;SDS011;47013;42.664;23.242;2023-06-22T07:55:36;0.50;;;0.50;;
61127;SDS011;47013;42.664;23.242;2023-06-22T07:58:02;2.63;;;1.45;;
61127;SDS011;47013;42.664;23.242;2023-06-22T08:00:27;1.75;;;1.20;;
61127;SDS011;47013;42.664;23.242;2023-06-22T08:02:52;1.08;;;0.90;;
61127;SDS011;47013;42.664;23.242;2023-06-22T08:05:18;1.75;;;1.30;;
61127;SDS011;47013;42.664;23.242;2023-06-22T08:07:44;2.40;;;1.38;;
61127;SDS011;47013;42.664;23.242;2023-06-22T08:10:12;1.85;;;1.50;;
61127;SDS011;47013;42.664;23.242;2023-06-22T08:12:38;1.27;;;1.17;;
61127;SDS011;47013;42.664;23.242;2023-06-22T08:15:04;1.60;;;1.08;;
61127;SDS011;47013;42.664;23.242;2023-06-22T08:17:30;1.60;;;0.98;;
61127;SDS011;47013;42.664;23.242;2023-06-22T08:19:56;1.60;;;1.00;;
61127;SDS011;47013;42.664;23.242;2023-06-22T08:22:21;1.58;;;1.30;;
61127;SDS011;47013;42.664;23.242;2023-06-22T08:24:47;1.58;;;1.10;;
61127;SDS011;47013;42.664;23.242;2023-06-22T08:27:13;1.80;;;1.08;;
61127;SDS011;47013;42.664;23.242;2023-06-22T08:29:39;1.23;;;0.82;;
61127;SDS011;47013;42.664;23.242;2023-06-22T08:32:07;3.25;;;1.77;;
61127;SDS011;47013;42.664;23.242;2023-06-22T08:34:33;2.08;;;1.33;;
61127;SDS011;47013;42.664;23.242;2023-06-22T08:36:59;0.85;;;0.80;;
61127;SDS011;47013;42.664;23.242;2023-06-22T08:39:25;1.85;;;1.33;;
61127;SDS011;47013;42.664;23.242;2023-06-22T08:41:51;1.67;;;1.13;;
61127;SDS011;47013;42.664;23.242;2023-06-22T08:44:18;1.60;;;1.17;;
61127;SDS011;47013;42.664;23.242;2023-06-22T08:49:09;0.63;;;0.55;;
61127;SDS011;47013;42.664;23.242;2023-06-22T08:51:35;1.13;;;0.88;;
61127;SDS011;47013;42.664;23.242;2023-06-22T08:54:00;2.08;;;1.27;;
61127;SDS011;47013;42.664;23.242;2023-06-22T08:56:26;1.92;;;1.25;;
61127;SDS011;47013;42.664;23.242;2023-06-22T08:58:51;1.80;;;1.30;;
61127;SDS011;47013;42.664;23.242;2023-06-22T09:01:17;1.80;;;1.02;;
61127;SDS011;47013;42.664;23.242;2023-06-22T09:03:42;2.10;;;1.40;;
61127;SDS011;47013;42.664;23.242;2023-06-22T09:06:08;1.73;;;1.00;;
61127;SDS011;47013;42.664;23.242;2023-06-22T09:08:37;1.33;;;1.17;;
61127;SDS011;47013;42.664;23.242;2023-06-22T09:11:02;2.78;;;1.80;;
61127;SDS011;47013;42.664;23.242;2023-06-22T09:13:29;1.85;;;1.02;;
61127;SDS011;47013;42.664;23.242;2023-06-22T09:15:55;1.73;;;1.02;;
61127;SDS011;47013;42.664;23.242;2023-06-22T09:18:21;1.73;;;1.08;;
61127;SDS011;47013;42.664;23.242;2023-06-22T09:20:46;1.80;;;1.27;;
61127;SDS011;47013;42.664;23.242;2023-06-22T09:25:56;1.77;;;0.93;;
61127;SDS011;47013;42.664;23.242;2023-06-22T09:28:39;2.05;;;1.25;;
61127;SDS011;47013;42.664;23.242;2023-06-22T09:31:05;1.33;;;1.08;;
61127;SDS011;47013;42.664;23.242;2023-06-22T09:33:32;2.67;;;1.13;;
61127;SDS011;47013;42.664;23.242;2023-06-22T09:35:57;2.05;;;1.17;;
61127;SDS011;47013;42.664;23.242;2023-06-22T09:38:23;1.20;;;0.80;;
61127;SDS011;47013;42.664;23.242;2023-06-22T09:40:48;2.05;;;1.20;;
61127;SDS011;47013;42.664;23.242;2023-06-22T09:43:14;1.58;;;0.98;;
61127;SDS011;47013;42.664;23.242;2023-06-22T09:45:39;1.83;;;1.40;;
61127;SDS011;47013;42.664;23.242;2023-06-22T09:48:05;1.40;;;0.93;;
61127;SDS011;47013;42.664;23.242;2023-06-22T09:50:30;3.13;;;1.45;;
61127;SDS011;47013;42.664;23.242;2023-06-22T09:52:56;2.90;;;1.42;;
61127;SDS011;47013;42.664;23.242;2023-06-22T09:55:21;1.83;;;1.40;;
61127;SDS011;47013;42.664;23.242;2023-06-22T09:57:47;1.27;;;0.90;;
61127;SDS011;47013;42.664;23.242;2023-06-22T10:00:13;1.00;;;0.90;;
61127;SDS011;47013;42.664;23.242;2023-06-22T10:05:09;1.60;;;1.05;;
61127;SDS011;47013;42.664;23.242;2023-06-22T10:07:34;0.80;;;0.70;;
61127;SDS011;47013;42.664;23.242;2023-06-22T10:09:59;2.85;;;1.45;;
61127;SDS011;47013;42.664;23.242;2023-06-22T10:14:52;1.38;;;1.20;;
61127;SDS011;47013;42.664;23.242;2023-06-22T10:17:18;2.08;;;1.30;;
61127;SDS011;47013;42.664;23.242;2023-06-22T10:19:43;1.88;;;1.30;;
61127;SDS011;47013;42.664;23.242;2023-06-22T10:22:08;1.05;;;0.98;;
61127;SDS011;47013;42.664;23.242;2023-06-22T10:24:34;1.35;;;1.10;;
61127;SDS011;47013;42.664;23.242;2023-06-22T10:26:59;1.85;;;1.25;;
61127;SDS011;47013;42.664;23.242;2023-06-22T10:29:25;1.88;;;1.30;;
61127;SDS011;47013;42.664;23.242;2023-06-22T10:31:50;1.08;;;0.93;;
61127;SDS011;47013;42.664;23.242;2023-06-22T10:34:15;2.20;;;1.42;;
61127;SDS011;47013;42.664;23.242;2023-06-22T10:36:41;2.78;;;1.23;;
61127;SDS011;47013;42.664;23.242;2023-06-22T10:39:06;1.95;;;1.10;;
61127;SDS011;47013;42.664;23.242;2023-06-22T10:41:32;2.88;;;1.17;;
61127;SDS011;47013;42.664;23.242;2023-06-22T10:43:57;1.75;;;1.05;;
61127;SDS011;47013;42.664;23.242;2023-06-22T10:46:26;1.50;;;1.13;;
61127;SDS011;47013;42.664;23.242;2023-06-22T10:48:52;1.25;;;1.08;;
61127;SDS011;47013;42.664;23.242;2023-06-22T10:51:20;1.05;;;0.95;;
61127;SDS011;47013;42.664;23.242;2023-06-22T10:53:45;3.13;;;1.73;;
61127;SDS011;47013;42.664;23.242;2023-06-22T10:56:11;3.17;;;1.83;;
61127;SDS011;47013;42.664;23.242;2023-06-22T10:58:36;2.30;;;1.25;;
61127;SDS011;47013;42.664;23.242;2023-06-22T11:01:02;2.30;;;1.38;;
61127;SDS011;47013;42.664;23.242;2023-06-22T11:03:28;2.58;;;1.48;;
61127;SDS011;47013;42.664;23.242;2023-06-22T11:05:53;2.47;;;1.52;;
61127;SDS011;47013;42.664;23.242;2023-06-22T11:08:19;2.00;;;1.30;;
61127;SDS011;47013;42.664;23.242;2023-06-22T11:10:44;5.47;;;1.60;;
61127;SDS011;47013;42.664;23.242;2023-06-22T11:13:10;1.30;;;1.05;;
61127;SDS011;47013;42.664;23.242;2023-06-22T11:15:35;1.33;;;1.15;;
61127;SDS011;47013;42.664;23.242;2023-06-22T11:18:01;1.42;;;1.25;;
61127;SDS011;47013;42.664;23.242;2023-06-22T11:20:26;2.20;;;1.25;;
61127;SDS011;47013;42.664;23.242;2023-06-22T11:22:52;1.35;;;1.10;;
61127;SDS011;47013;42.664;23.242;2023-06-22T11:25:17;2.85;;;1.40;;
61127;SDS011;47013;42.664;23.242;2023-06-22T11:27:43;2.13;;;1.30;;
61127;SDS011;47013;42.664;23.242;2023-06-22T11:30:08;3.65;;;1.50;;
61127;SDS011;47013;42.664;23.242;2023-06-22T11:32:34;2.75;;;1.70;;
61127;SDS011;47013;42.664;23.242;2023-06-22T11:35:00;2.30;;;1.42;;
61127;SDS011;47013;42.664;23.242;2023-06-22T11:37:25;2.17;;;1.35;;
61127;SDS011;47013;42.664;23.242;2023-06-22T11:39:51;1.75;;;1.20;;
61127;SDS011;47013;42.664;23.242;2023-06-22T11:42:16;2.40;;;1.40;;
61127;SDS011;47013;42.664;23.242;2023-06-22T11:44:42;2.03;;;1.38;;
61127;SDS011;47013;42.664;23.242;2023-06-22T11:47:08;2.37;;;1.40;;
61127;SDS011;47013;42.664;23.242;2023-06-22T11:49:34;2.15;;;1.35;;
61127;SDS011;47013;42.664;23.242;2023-06-22T11:51:59;2.70;;;1.63;;
61127;SDS011;47013;42.664;23.242;2023-06-22T11:54:25;2.22;;;1.38;;
61127;SDS011;47013;42.664;23.242;2023-06-22T11:56:50;4.13;;;1.88;;
61127;SDS011;47013;42.664;23.242;2023-06-22T11:59:15;2.03;;;1.25;;
61127;SDS011;47013;42.664;23.242;2023-06-22T12:01:41;2.20;;;1.42;;
61127;SDS011;47013;42.664;23.242;2023-06-22T12:04:06;1.67;;;0.93;;
61127;SDS011;47013;42.664;23.242;2023-06-22T12:06:32;3.10;;;1.45;;
61127;SDS011;47013;42.664;23.242;2023-06-22T12:08:58;2.58;;;1.40;;
61127;SDS011;47013;42.664;23.242;2023-06-22T12:11:23;2.45;;;1.30;;
61127;SDS011;47013;42.664;23.242;2023-06-22T12:13:49;1.00;;;0.75;;
61127;SDS011;47013;42.664;23.242;2023-06-22T12:16:14;1.38;;;0.80;;
61127;SDS011;47013;42.664;23.242;2023-06-22T12:18:40;2.50;;;1.58;;
61127;SDS011;47013;42.664;23.242;2023-06-22T12:21:05;1.05;;;0.95;;
61127;SDS011;47013;42.664;23.242;2023-06-22T12:23:31;1.05;;;0.90;;
61127;SDS011;47013;42.664;23.242;2023-06-22T12:25:56;2.22;;;1.40;;
61127;SDS011;47013;42.664;23.242;2023-06-22T12:28:22;1.70;;;0.82;;
61127;SDS011;47013;42.664;23.242;2023-06-22T12:30:48;1.95;;;1.05;;
61127;SDS011;47013;42.664;23.242;2023-06-22T12:33:14;1.73;;;1.20;;
61127;SDS011;47013;42.664;23.242;2023-06-22T12:35:39;0.73;;;0.63;;
61127;SDS011;47013;42.664;23.242;2023-06-22T12:38:04;1.23;;;0.75;;
61127;SDS011;47013;42.664;23.242;2023-06-22T12:40:32;0.93;;;0.65;;
61127;SDS011;47013;42.664;23.242;2023-06-22T12:42:58;0.88;;;0.50;;
61127;SDS011;47013;42.664;23.242;2023-06-22T12:45:23;0.68;;;0.40;;
61127;SDS011;47013;42.664;23.242;2023-06-22T12:47:50;0.17;;;0.17;;
61127;SDS011;47013;42.664;23.242;2023-06-22T12:50:15;0.90;;;0.60;;
61127;SDS011;47013;42.664;23.242;2023-06-22T12:52:41;0.47;;;0.40;;
61127;SDS011;47013;42.664;23.242;2023-06-22T12:55:07;0.65;;;0.40;;
61127;SDS011;47013;42.664;23.242;2023-06-22T12:57:33;1.10;;;0.88;;
61127;SDS011;47013;42.664;23.242;2023-06-22T12:59:58;0.95;;;0.63;;
61127;SDS011;47013;42.664;23.242;2023-06-22T13:02:25;0.35;;;0.30;;
61127;SDS011;47013;42.664;23.242;2023-06-22T13:04:51;1.48;;;0.82;;
61127;SDS011;47013;42.664;23.242;2023-06-22T13:07:17;1.27;;;0.43;;
61127;SDS011;47013;42.664;23.242;2023-06-22T13:12:16;0.73;;;0.57;;
61127;SDS011;47013;42.664;23.242;2023-06-22T13:14:41;0.93;;;0.52;;
61127;SDS011;47013;42.664;23.242;2023-06-22T13:17:08;0.85;;;0.68;;
61127;SDS011;47013;42.664;23.242;2023-06-22T13:19:33;0.20;;;0.05;;
61127;SDS011;47013;42.664;23.242;2023-06-22T13:22:00;0.17;;;0.17;;
61127;SDS011;47013;42.664;23.242;2023-06-22T13:24:27;0.32;;;0.32;;
61127;SDS011;47013;42.664;23.242;2023-06-22T13:26:52;0.90;;;0.68;;
61127;SDS011;47013;42.664;23.242;2023-06-22T13:29:18;0.50;;;0.28;;
61127;SDS011;47013;42.664;23.242;2023-06-22T13:31:43;0.30;;;0.30;;
61127;SDS011;47013;42.664;23.242;2023-06-22T13:34:11;0.80;;;0.63;;
61127;SDS011;47013;42.664;23.242;2023-06-22T13:36:37;0.35;;;0.28;;
61127;SDS011;47013;42.664;23.242;2023-06-22T13:39:03;1.60;;;1.00;;
61127;SDS011;47013;42.664;23.242;2023-06-22T13:41:34;0.52;;;0.52;;
61127;SDS011;47013;42.664;23.242;2023-06-22T13:44:03;1.13;;;0.47;;
61127;SDS011;47013;42.664;23.242;2023-06-22T13:46:28;0.38;;;0.38;;
61127;SDS011;47013;42.664;23.242;2023-06-22T13:48:54;0.70;;;0.40;;
61127;SDS011;47013;42.664;23.242;2023-06-22T13:51:19;0.45;;;0.35;;
61127;SDS011;47013;42.664;23.242;2023-06-22T13:53:44;0.50;;;0.28;;
61127;SDS011;47013;42.664;23.242;2023-06-22T13:56:10;0.30;;;0.22;;
61127;SDS011;47013;42.664;23.242;2023-06-22T13:58:35;0.20;;;0.20;;
61127;SDS011;47013;42.664;23.242;2023-06-22T14:01:00;0.10;;;0.10;;
61127;SDS011;47013;42.664;23.242;2023-06-22T14:03:26;1.17;;;0.52;;
61127;SDS011;47013;42.664;23.242;2023-06-22T14:05:51;0.65;;;0.20;;
61127;SDS011;47013;42.664;23.242;2023-06-22T14:08:19;0.93;;;0.50;;
61127;SDS011;47013;42.664;23.242;2023-06-22T14:10:44;0.30;;;0.30;;
61127;SDS011;47013;42.664;23.242;2023-06-22T14:13:10;0.90;;;0.30;;
61127;SDS011;47013;42.664;23.242;2023-06-22T14:18:13;0.20;;;0.20;;
61127;SDS011;47013;42.664;23.242;2023-06-22T14:20:39;0.40;;;0.40;;
61127;SDS011;47013;42.664;23.242;2023-06-22T14:23:05;0.50;;;0.50;;
61127;SDS011;47013;42.664;23.242;2023-06-22T14:25:30;0.47;;;0.35;;
61127;SDS011;47013;42.664;23.242;2023-06-22T14:27:56;0.32;;;0.32;;
61127;SDS011;47013;42.664;23.242;2023-06-22T14:30:21;0.80;;;0.70;;
61127;SDS011;47013;42.664;23.242;2023-06-22T14:32:46;0.20;;;0.20;;
61127;SDS011;47013;42.664;23.242;2023-06-22T14:35:12;0.50;;;0.50;;
61127;SDS011;47013;42.664;23.242;2023-06-22T14:37:37;0.43;;;0.43;;
61127;SDS011;47013;42.664;23.242;2023-06-22T14:40:03;0.10;;;0.10;;
61127;SDS011;47013;42.664;23.242;2023-06-22T14:42:29;0.80;;;0.43;;
61127;SDS011;47013;42.664;23.242;2023-06-22T14:44:55;0.75;;;0.65;;
61127;SDS011;47013;42.664;23.242;2023-06-22T14:47:20;0.38;;;0.25;;
61127;SDS011;47013;42.664;23.242;2023-06-22T14:49:46;0.43;;;0.32;;
61127;SDS011;47013;42.664;23.242;2023-06-22T14:52:11;0.50;;;0.50;;
61127;SDS011;47013;42.664;23.242;2023-06-22T14:54:37;0.10;;;0.10;;
61127;SDS011;47013;42.664;23.242;2023-06-22T14:57:02;1.88;;;0.73;;
61127;SDS011;47013;42.664;23.242;2023-06-22T14:59:27;1.38;;;0.65;;
61127;SDS011;47013;42.664;23.242;2023-06-22T15:01:53;0.20;;;0.20;;
61127;SDS011;47013;42.664;23.242;2023-06-22T15:04:18;0.38;;;0.38;;
61127;SDS011;47013;42.664;23.242;2023-06-22T15:06:43;0.30;;;0.30;;
61127;SDS011;47013;42.664;23.242;2023-06-22T15:09:10;0.65;;;0.47;;
61127;SDS011;47013;42.664;23.242;2023-06-22T15:11:35;0.70;;;0.60;;
61127;SDS011;47013;42.664;23.242;2023-06-22T15:14:00;0.47;;;0.47;;
61127;SDS011;47013;42.664;23.242;2023-06-22T15:16:26;0.43;;;0.32;;
61127;SDS011;47013;42.664;23.242;2023-06-22T15:18:51;0.25;;;0.25;;
61127;SDS011;47013;42.664;23.242;2023-06-22T15:21:17;0.17;;;0.17;;
61127;SDS011;47013;42.664;23.242;2023-06-22T15:23:42;0.55;;;0.40;;
61127;SDS011;47013;42.664;23.242;2023-06-22T15:26:07;0.52;;;0.30;;
61127;SDS011;47013;42.664;23.242;2023-06-22T15:28:33;0.82;;;0.70;;
61127;SDS011;47013;42.664;23.242;2023-06-22T15:31:00;0.65;;;0.45;;
61127;SDS011;47013;42.664;23.242;2023-06-22T15:33:25;0.30;;;0.30;;
61127;SDS011;47013;42.664;23.242;2023-06-22T15:35:51;0.40;;;0.40;;
61127;SDS011;47013;42.664;23.242;2023-06-22T15:38:17;0.60;;;0.60;;
61127;SDS011;47013;42.664;23.242;2023-06-22T15:40:43;0.55;;;0.55;;
61127;SDS011;47013;42.664;23.242;2023-06-22T15:43:11;0.10;;;0.10;;
61127;SDS011;47013;42.664;23.242;2023-06-22T15:45:40;0.73;;;0.52;;
61127;SDS011;47013;42.664;23.242;2023-06-22T15:48:05;1.25;;;0.80;;
61127;SDS011;47013;42.664;23.242;2023-06-22T15:50:31;0.28;;;0.28;;
61127;SDS011;47013;42.664;23.242;2023-06-22T15:52:56;1.05;;;0.68;;
61127;SDS011;47013;42.664;23.242;2023-06-22T15:55:21;1.77;;;0.55;;
61127;SDS011;47013;42.664;23.242;2023-06-22T15:57:48;0.40;;;0.40;;
61127;SDS011;47013;42.664;23.242;2023-06-22T16:00:14;0.95;;;0.63;;
61127;SDS011;47013;42.664;23.242;2023-06-22T16:02:43;0.55;;;0.45;;
61127;SDS011;47013;42.664;23.242;2023-06-22T16:05:09;1.00;;;0.55;;
61127;SDS011;47013;42.664;23.242;2023-06-22T16:07:35;0.35;;;0.25;;
61127;SDS011;47013;42.664;23.242;2023-06-22T16:10:02;0.88;;;0.63;;
61127;SDS011;47013;42.664;23.242;2023-06-22T16:12:28;1.35;;;0.93;;
61127;SDS011;47013;42.664;23.242;2023-06-22T16:14:54;1.50;;;0.95;;
61127;SDS011;47013;42.664;23.242;2023-06-22T16:17:20;0.95;;;0.55;;
61127;SDS011;47013;42.664;23.242;2023-06-22T16:19:46;0.55;;;0.38;;
61127;SDS011;47013;42.664;23.242;2023-06-22T16:22:11;0.90;;;0.45;;
61127;SDS011;47013;42.664;23.242;2023-06-22T16:24:37;1.08;;;0.52;;
61127;SDS011;47013;42.664;23.242;2023-06-22T16:27:02;1.52;;;0.77;;
61127;SDS011;47013;42.664;23.242;2023-06-22T16:29:27;0.40;;;0.40;;
61127;SDS011;47013;42.664;23.242;2023-06-22T16:31:53;0.43;;;0.43;;
61127;SDS011;47013;42.664;23.242;2023-06-22T16:34:19;0.35;;;0.32;;
61127;SDS011;47013;42.664;23.242;2023-06-22T16:36:44;0.52;;;0.50;;
61127;SDS011;47013;42.664;23.242;2023-06-22T16:39:09;1.17;;;0.75;;
61127;SDS011;47013;42.664;23.242;2023-06-22T16:41:35;0.60;;;0.55;;
61127;SDS011;47013;42.664;23.242;2023-06-22T16:44:00;1.30;;;0.95;;
61127;SDS011;47013;42.664;23.242;2023-06-22T16:46:30;0.32;;;0.32;;
61127;SDS011;47013;42.664;23.242;2023-06-22T16:48:56;0.55;;;0.55;;
61127;SDS011;47013;42.664;23.242;2023-06-22T16:51:22;1.17;;;0.85;;
61127;SDS011;47013;42.664;23.242;2023-06-22T16:53:48;0.05;;;0.05;;
61127;SDS011;47013;42.664;23.242;2023-06-22T16:56:19;0.52;;;0.40;;
61127;SDS011;47013;42.664;23.242;2023-06-22T16:58:50;0.60;;;0.35;;
61127;SDS011;47013;42.664;23.242;2023-06-22T17:01:16;0.63;;;0.52;;
61127;SDS011;47013;42.664;23.242;2023-06-22T17:03:43;0.20;;;0.20;;
61127;SDS011;47013;42.664;23.242;2023-06-22T17:06:13;1.02;;;0.52;;
61127;SDS011;47013;42.664;23.242;2023-06-22T17:08:40;0.10;;;0.10;;
61127;SDS011;47013;42.664;23.242;2023-06-22T17:13:36;1.73;;;0.82;;
61127;SDS011;47013;42.664;23.242;2023-06-22T17:16:02;0.55;;;0.30;;
61127;SDS011;47013;42.664;23.242;2023-06-22T17:18:30;0.40;;;0.40;;
61127;SDS011;47013;42.664;23.242;2023-06-22T17:20:56;0.57;;;0.20;;
61127;SDS011;47013;42.664;23.242;2023-06-22T17:23:22;0.70;;;0.52;;
61127;SDS011;47013;42.664;23.242;2023-06-22T17:25:49;0.55;;;0.55;;
61127;SDS011;47013;42.664;23.242;2023-06-22T17:28:17;0.85;;;0.40;;
61127;SDS011;47013;42.664;23.242;2023-06-22T17:30:44;0.90;;;0.65;;
61127;SDS011;47013;42.664;23.242;2023-06-22T17:33:09;0.35;;;0.32;;
61127;SDS011;47013;42.664;23.242;2023-06-22T17:35:46;1.05;;;0.75;;
61127;SDS011;47013;42.664;23.242;2023-06-22T17:38:31;0.90;;;0.65;;
61127;SDS011;47013;42.664;23.242;2023-06-22T17:41:01;0.13;;;0.13;;
61127;SDS011;47013;42.664;23.242;2023-06-22T17:45:58;0.17;;;0.17;;
61127;SDS011;47013;42.664;23.242;2023-06-22T17:48:24;0.52;;;0.52;;
61127;SDS011;47013;42.664;23.242;2023-06-22T17:50:50;0.30;;;0.25;;
61127;SDS011;47013;42.664;23.242;2023-06-22T17:53:16;1.30;;;0.80;;
61127;SDS011;47013;42.664;23.242;2023-06-22T17:55:42;0.30;;;0.30;;
61127;SDS011;47013;42.664;23.242;2023-06-22T17:58:07;0.25;;;0.25;;
61127;SDS011;47013;42.664;23.242;2023-06-22T18:00:33;0.40;;;0.40;;
61127;SDS011;47013;42.664;23.242;2023-06-22T18:02:59;1.95;;;0.68;;
61127;SDS011;47013;42.664;23.242;2023-06-22T18:05:28;1.05;;;0.57;;
61127;SDS011;47013;42.664;23.242;2023-06-22T18:07:58;0.17;;;0.17;;
61127;SDS011;47013;42.664;23.242;2023-06-22T18:10:28;0.70;;;0.50;;
61127;SDS011;47013;42.664;23.242;2023-06-22T18:12:54;1.30;;;0.93;;
61127;SDS011;47013;42.664;23.242;2023-06-22T18:15:24;0.10;;;0.10;;
61127;SDS011;47013;42.664;23.242;2023-06-22T18:17:53;0.50;;;0.50;;
61127;SDS011;47013;42.664;23.242;2023-06-22T18:20:19;0.22;;;0.22;;
61127;SDS011;47013;42.664;23.242;2023-06-22T18:22:49;0.30;;;0.30;;
61127;SDS011;47013;42.664;23.242;2023-06-22T18:25:15;0.38;;;0.38;;
61127;SDS011;47013;42.664;23.242;2023-06-22T18:27:45;0.10;;;0.10;;
61127;SDS011;47013;42.664;23.242;2023-06-22T18:30:12;0.80;;;0.47;;
61127;SDS011;47013;42.664;23.242;2023-06-22T18:32:39;0.25;;;0.22;;
61127;SDS011;47013;42.664;23.242;2023-06-22T18:35:05;0.47;;;0.35;;
61127;SDS011;47013;42.664;23.242;2023-06-22T18:37:31;0.43;;;0.20;;
61127;SDS011;47013;42.664;23.242;2023-06-22T18:39:59;0.65;;;0.52;;
61127;SDS011;47013;42.664;23.242;2023-06-22T18:42:27;0.40;;;0.40;;
61127;SDS011;47013;42.664;23.242;2023-06-22T18:44:54;0.32;;;0.32;;
61127;SDS011;47013;42.664;23.242;2023-06-22T18:47:29;0.45;;;0.38;;
61127;SDS011;47013;42.664;23.242;2023-06-22T18:50:05;0.00;;;0.00;;
61127;SDS011;47013;42.664;23.242;2023-06-22T18:52:32;0.75;;;0.57;;
61127;SDS011;47013;42.664;23.242;2023-06-22T18:55:03;0.45;;;0.20;;
61127;SDS011;47013;42.664;23.242;2023-06-22T18:57:31;0.63;;;0.38;;
61127;SDS011;47013;42.664;23.242;2023-06-22T18:59:58;0.90;;;0.63;;
61127;SDS011;47013;42.664;23.242;2023-06-22T19:05:05;0.20;;;0.20;;
61127;SDS011;47013;42.664;23.242;2023-06-22T19:10:22;0.93;;;0.65;;
61127;SDS011;47013;42.664;23.242;2023-06-22T19:12:50;2.03;;;0.85;;
61127;SDS011;47013;42.664;23.242;2023-06-22T19:15:17;0.13;;;0.13;;
61127;SDS011;47013;42.664;23.242;2023-06-22T19:17:42;0.75;;;0.70;;
61127;SDS011;47013;42.664;23.242;2023-06-22T19:20:10;1.08;;;0.63;;
61127;SDS011;47013;42.664;23.242;2023-06-22T19:28:12;0.90;;;0.55;;
61127;SDS011;47013;42.664;23.242;2023-06-22T19:30:39;0.98;;;0.40;;
61127;SDS011;47013;42.664;23.242;2023-06-22T19:33:05;0.50;;;0.35;;
61127;SDS011;47013;42.664;23.242;2023-06-22T19:35:33;0.17;;;0.17;;
61127;SDS011;47013;42.664;23.242;2023-06-22T19:37:58;0.57;;;0.45;;
61127;SDS011;47013;42.664;23.242;2023-06-22T19:40:25;0.10;;;0.10;;
61127;SDS011;47013;42.664;23.242;2023-06-22T19:42:52;0.52;;;0.50;;
61127;SDS011;47013;42.664;23.242;2023-06-22T19:45:19;0.60;;;0.43;;
61127;SDS011;47013;42.664;23.242;2023-06-22T19:47:45;0.30;;;0.30;;
61127;SDS011;47013;42.664;23.242;2023-06-22T19:50:10;0.35;;;0.35;;
61127;SDS011;47013;42.664;23.242;2023-06-22T19:52:37;0.25;;;0.25;;
61127;SDS011;47013;42.664;23.242;2023-06-22T19:55:04;0.30;;;0.30;;
61127;SDS011;47013;42.664;23.242;2023-06-22T19:57:33;0.88;;;0.47;;
61127;SDS011;47013;42.664;23.242;2023-06-22T20:00:02;0.00;;;0.00;;
61127;SDS011;47013;42.664;23.242;2023-06-22T20:02:33;0.50;;;0.30;;
61127;SDS011;47013;42.664;23.242;2023-06-22T20:05:03;1.55;;;0.47;;
61127;SDS011;47013;42.664;23.242;2023-06-22T20:07:41;0.38;;;0.22;;
61127;SDS011;47013;42.664;23.242;2023-06-22T20:12:49;0.32;;;0.30;;
61127;SDS011;47013;42.664;23.242;2023-06-22T20:18:03;0.22;;;0.20;;
61127;SDS011;47013;42.664;23.242;2023-06-22T20:20:33;0.20;;;0.17;;
61127;SDS011;47013;42.664;23.242;2023-06-22T20:23:00;0.57;;;0.57;;
61127;SDS011;47013;42.664;23.242;2023-06-22T20:25:30;0.30;;;0.30;;
61127;SDS011;47013;42.664;23.242;2023-06-22T20:28:05;0.57;;;0.47;;
61127;SDS011;47013;42.664;23.242;2023-06-22T20:30:34;0.10;;;0.10;;
61127;SDS011;47013;42.664;23.242;2023-06-22T20:32:59;0.03;;;0.03;;
61127;SDS011;47013;42.664;23.242;2023-06-22T20:35:27;0.60;;;0.45;;
61127;SDS011;47013;42.664;23.242;2023-06-22T20:37:52;0.20;;;0.20;;
61127;SDS011;47013;42.664;23.242;2023-06-22T20:40:27;0.22;;;0.22;;
61127;SDS011;47013;42.664;23.242;2023-06-22T20:42:59;0.47;;;0.30;;
61127;SDS011;47013;42.664;23.242;2023-06-22T20:45:25;0.35;;;0.35;;
61127;SDS011;47013;42.664;23.242;2023-06-22T20:47:52;1.15;;;0.65;;
61127;SDS011;47013;42.664;23.242;2023-06-22T20:50:20;0.63;;;0.40;;
61127;SDS011;47013;42.664;23.242;2023-06-22T20:52:57;0.40;;;0.40;;
61127;SDS011;47013;42.664;23.242;2023-06-22T20:55:23;0.20;;;0.20;;
61127;SDS011;47013;42.664;23.242;2023-06-22T20:57:49;0.10;;;0.10;;
61127;SDS011;47013;42.664;23.242;2023-06-22T21:00:15;0.47;;;0.32;;
61127;SDS011;47013;42.664;23.242;2023-06-22T21:02:41;0.75;;;0.43;;
61127;SDS011;47013;42.664;23.242;2023-06-22T21:05:08;0.50;;;0.45;;
61127;SDS011;47013;42.664;23.242;2023-06-22T21:07:33;0.25;;;0.17;;
61127;SDS011;47013;42.664;23.242;2023-06-22T21:09:59;0.60;;;0.38;;
61127;SDS011;47013;42.664;23.242;2023-06-22T21:12:29;0.20;;;0.17;;
61127;SDS011;47013;42.664;23.242;2023-06-22T21:14:55;1.20;;;0.93;;
61127;SDS011;47013;42.664;23.242;2023-06-22T21:17:21;1.55;;;0.93;;
61127;SDS011;47013;42.664;23.242;2023-06-22T21:19:47;1.20;;;0.60;;
61127;SDS011;47013;42.664;23.242;2023-06-22T21:22:12;0.15;;;0.15;;
61127;SDS011;47013;42.664;23.242;2023-06-22T21:24:38;0.60;;;0.40;;
61127;SDS011;47013;42.664;23.242;2023-06-22T21:27:04;0.35;;;0.22;;
61127;SDS011;47013;42.664;23.242;2023-06-22T21:29:29;0.20;;;0.20;;
61127;SDS011;47013;42.664;23.242;2023-06-22T21:31:55;0.08;;;0.08;;
61127;SDS011;47013;42.664;23.242;2023-06-22T21:34:21;0.65;;;0.60;;
61127;SDS011;47013;42.664;23.242;2023-06-22T21:36:47;0.10;;;0.10;;
61127;SDS011;47013;42.664;23.242;2023-06-22T21:39:12;0.30;;;0.20;;
61127;SDS011;47013;42.664;23.242;2023-06-22T21:41:37;0.52;;;0.43;;
61127;SDS011;47013;42.664;23.242;2023-06-22T21:44:03;0.43;;;0.25;;
61127;SDS011;47013;42.664;23.242;2023-06-22T21:46:29;0.63;;;0.43;;
61127;SDS011;47013;42.664;23.242;2023-06-22T21:48:54;0.38;;;0.20;;
61127;SDS011;47013;42.664;23.242;2023-06-22T21:51:19;0.10;;;0.10;;
61127;SDS011;47013;42.664;23.242;2023-06-22T21:53:45;0.10;;;0.10;;
61127;SDS011;47013;42.664;23.242;2023-06-22T21:56:11;0.25;;;0.25;;
61127;SDS011;47013;42.664;23.242;2023-06-22T21:58:36;0.00;;;0.00;;
61127;SDS011;47013;42.664;23.242;2023-06-22T22:01:01;0.25;;;0.25;;
61127;SDS011;47013;42.664;23.242;2023-06-22T22:03:27;1.08;;;0.90;;